Accueil
METAR-TAF:

METAR-TAF

Aéroports :

Aérodrome de Payerne

Payerne, Suisse

latitude: 46-49N, longitude: 006-57E, altitude: 490 m

Observation

Le bulletin a été fait il y a 44 minutes, à 18:20 UTC
Vent 5 kt de nord-est
Température 13°C
Humidité 77%
Pression 1027 hPa
Visibilité: 6000 m

METAR: LSMP 201820Z AUTO 04005KT 6000NDV NCD 13/09 Q1027 RMK

Heure: 21:04 (19:04 UTC)


TAF: absent

Observations et prévisions météorologiques de plus de 4000 aéroports (messages METAR et TAF).

Les stations disponibles sont représentées par des disques jaunes et rouges sur la carte.

Passer la souris dessus pour voir le nom de la station.

Cliquer dessus pour voir les observations et prévisions météorologiques.

Pour changer de carte: cliquez sur les boutons verts avec une croix noire pour zoomer, sur le bouton vert avec un tiret pour effectuer un zoom arrière, ou sur les flèches vertes pour les cartes adjacentes.


METAR-TAF: